Bunker Hill, IN (46914)

2:08 PM EST on November 28, 2014 (GMT -0500)
southern cass co. | Change Station
CLOSE
Current Station
Personal Weather Station
Location: Galveston, IN
Elevation: 778 ft
Nearby Weather Stations

Elev 778 ft 40.60 °N, 86.19 °W | Updated 11 seconds ago

Scattered Clouds
Scattered Clouds
31.1 °F
Feels Like 27 °F
N
4.5
Wind Variable Wind from SE
Gusts 7.4 mph

Today
High -- | Low -- °F
--% Chance of Precip.
Yesterday
High -- | Low -- °F
Precip. -- in
7:45 AM 5:18 PM
Waxing Crescent, 43% visible
Pressure 30.22 in
Visibility 10.0 miles
Clouds Few 2100 ft
Scattered Clouds 14000 ft
Windchill 27 °F
Dew Point 18 °F
Humidity 58%
Rainfall 0.00 in
Snow Depth Not available.
UV 2 out of 12
Pollen .10 out of 12
Air Quality Not available.
Flu Activity Not available.
METAR KGUS 281858Z 16009KT 10SM FEW021 SCT140 00/M07 A3018 RMK AO2A SLP233 T10041073

More Conditions Fewer Conditions

Pressure 30.22 in
Visibility 10.0 miles
Clouds Few 2100 ft
Scattered Clouds 14000 ft
Windchill 27 °F
Dew Point 18 °F
Humidity 58%
Rainfall 0.00 in
Snow Depth Not available.
UV 2 out of 12
Pollen .10 out of 12
Air Quality Not available.
Flu Activity Not available.
METAR KGUS 281858Z 16009KT 10SM FEW021 SCT140 00/M07 A3018 RMK AO2A SLP233 T10041073

More Conditions Fewer Conditions

10-Day Weather Forecast

Almanac

Astronomy

Nov. 28, 2014 Rise Set
Actual Time
Civil Twilight
Nautical Twilight
Astronomical Twilight
Moon
Length of Visible Light
Length of Day
Tomorrow will be .
, % of the Moon is Illuminated

Today's Extremes

State Highs State Lows

Community

WunderPhotos

Upload Photos

1,774,261 photos uploaded!

WunderBlogs® & News

Nearby

Air Quality

  Air Quality AQ Index Pollutant
Not available.

Snow Depth

Station Depth Elevation

Earthquake Activity

City Distance Mag. Time & Date
Minimum magnitude displayed is 2.5.

Coastal Water Temperatures

Place Temperature

Nearby Weather Stations